Jork Reliance — V2CL2 — position and weather

sailwx.info

Track history (hours):
 
Tides and Currents Weather Stations Pressure Air Temp Water Temp Dewpoint Dewpoint Depression Visibility Wind Speed Wind Dir Waves Ship Positions

Jork Reliance

Last reported at 2014-Sep-30 12:33 UTC. Time now 2014-Oct-01 20:29 UTC.
Position N 49°40' W 000°36'.

Length 141 m; draft 6.4 m.

Type: Ship (hazmat cat A). MMSI: 305033000.

Date/timePositionNaut miles runAvg speedWind from/ knotsBaromVisibWave heightAir tempDewpointWater temp
2014-Sep-30 12:33N 49°40' W 000°36'1313.1
2014-Sep-30 11:33N 49°35' W 000°17'1312.9
2014-Sep-30 10:33N 49°30' E 000°01'5 5.0
2014-Sep-30 09:32N 49°28' E 000°08'0 0.0
2014-Sep-30 08:32N 49°28' E 000°08'0 0.0
2014-Sep-30 07:32N 49°28' E 000°08'0 0.0
2014-Sep-30 06:32N 49°28' E 000°08'0 0.0
2014-Sep-30 05:32N 49°28' E 000°08'0 0.0
2014-Sep-30 04:32N 49°28' E 000°08'0 0.0
2014-Sep-30 03:32N 49°28' E 000°08'0 0.0
2014-Sep-30 02:32N 49°28' E 000°08'2 2.2
2014-Sep-30 01:33N 49°29' E 000°05'1211.9
2014-Sep-30 00:33N 49°33' W 000°12'8 7.9
2014-Sep-29 23:33N 49°41' W 000°12'8 7.8
2014-Sep-29 22:31N 49°49' W 000°10'42 8.1
2014-Sep-29 17:21N 50°30' E 000°08'910.9
2014-Sep-29 16:33N 50°33' E 000°20'1010.4
2014-Sep-29 15:34N 50°38' E 000°35'1010.4
2014-Sep-29 14:34N 50°44' E 000°48'24 9.7
2014-Sep-29 12:03N 50°57' E 001°20'611.7
2014-Sep-29 11:34N 51°01' E 001°26'1313.4
2014-Sep-29 10:33N 51°11' E 001°41'1312.7
2014-Sep-29 09:33N 51°21' E 001°55'9 9.4
2014-Sep-29 08:33N 51°22' E 002°10'1212.6
2014-Sep-29 07:34N 51°23' E 002°30'1515.2
2014-Sep-29 06:33N 51°23' E 002°54'1515.1
2014-Sep-29 05:33N 51°25' E 003°18'1414.1
2014-Sep-29 04:34N 51°26' E 003°40'1110.8
2014-Sep-29 03:34N 51°23' E 003°57'8 8.2
2014-Sep-29 02:33N 51°23' E 004°10'5 5.2
2014-Sep-29 01:34N 51°21' E 004°17'0 0.2
2014-Sep-29 00:34N 51°21' E 004°17'2 1.8
2014-Sep-28 23:32N 51°19' E 004°20'0 0.0
2014-Sep-28 22:32N 51°19' E 004°20'0 0.0
2014-Sep-28 21:32N 51°19' E 004°20'0 0.0
2014-Sep-28 20:32N 51°19' E 004°20'0 0.0
2014-Sep-28 19:32N 51°19' E 004°20'0 0.0
2014-Sep-28 18:29N 51°19' E 004°20'0 0.0
2014-Sep-28 17:32N 51°19' E 004°20'0 0.0
2014-Sep-28 16:29N 51°19' E 004°20'0 0.0
2014-Sep-28 15:32N 51°19' E 004°20'0 0.0
2014-Sep-28 14:32N 51°19' E 004°20'0 0.0
2014-Sep-28 13:32N 51°19' E 004°20'0 0.0
2014-Sep-28 12:32N 51°19' E 004°20'0 0.0
2014-Sep-28 11:32N 51°19' E 004°20'0 0.0
2014-Sep-28 10:33N 51°19' E 004°20'2 2.0
2014-Sep-28 09:34N 51°21' E 004°17'0 0.0
2014-Sep-28 08:34N 51°21' E 004°17'6 5.8
2014-Sep-28 07:34N 51°22' E 004°08'8 7.9
2014-Sep-28 06:33N 51°22' E 003°56'1211.7
2014-Sep-28 05:33N 51°25' E 003°37'9 9.2
2014-Sep-28 04:34N 51°24' E 003°23'1716.5
2014-Sep-28 03:33N 51°23' E 002°56'1111.5
2014-Sep-28 02:33N 51°22' E 002°38'8 8.1
2014-Sep-28 01:33N 51°21' E 002°25'1413.6
2014-Sep-28 00:33N 51°14' E 002°07'1616.2
2014-Sep-27 23:34N 51°04' E 001°46'1414.3
2014-Sep-27 22:33N 51°03' E 002°08'3 2.8
2014-Sep-27 21:33N 51°01' E 002°11'0 0.0
2014-Sep-27 20:33N 51°01' E 002°11'0 0.0
2014-Sep-27 19:27N 51°01' E 002°11'0 0.0
2014-Sep-27 18:33N 51°01' E 002°11'0 0.0
2014-Sep-27 17:33N 51°01' E 002°11'0 0.0
2014-Sep-27 16:33N 51°01' E 002°11'0 0.0
2014-Sep-27 15:33N 51°01' E 002°11'0 0.0
2014-Sep-27 14:33N 51°01' E 002°11'0 0.0
2014-Sep-27 13:33N 51°01' E 002°11'0 0.0
2014-Sep-27 12:33N 51°01' E 002°11'0 0.0
2014-Sep-27 11:33N 51°01' E 002°11'7 7.3
2014-Sep-27 10:33N 51°02' E 001°60'10 9.9
2014-Sep-27 09:33N 51°01' E 001°44'1312.8
2014-Sep-27 08:32N 50°53' E 001°28'1812.9
2014-Sep-27 07:08N 50°38' E 001°12'813.6
2014-Sep-27 06:32N 50°32' E 001°02'1313.6
2014-Sep-27 05:33N 50°27' E 000°43'1414.2
2014-Sep-27 04:33N 50°23' E 000°22'1414.1
2014-Sep-27 03:33N 50°19' E 000°01'1614.3
2014-Sep-27 02:27N 50°15' W 000°23'278 9.2
2014-Sep-25 20:14N 45°39' W 001°16'1416.4
2014-Sep-25 19:22N 45°31' W 000°59'  
2014-Sep-22 15:12N 49°41' W 000°38'1117.1
2014-Sep-22 14:34N 49°36' W 000°23'1616.2
2014-Sep-22 13:33N 49°30' E 000°01'5 5.2
2014-Sep-22 12:33N 49°28' E 000°08'0 0.0
2014-Sep-22 11:33N 49°28' E 000°08'0 0.0
2014-Sep-22 10:33N 49°28' E 000°08'0 0.0
2014-Sep-22 09:33N 49°28' E 000°08'0 0.0
2014-Sep-22 08:33N 49°28' E 000°08'0 0.0
2014-Sep-22 07:27N 49°28' E 000°08'0 0.0
2014-Sep-22 06:33N 49°28' E 000°08'0 0.0
2014-Sep-22 05:33N 49°28' E 000°08'0 0.0
2014-Sep-22 04:33N 49°28' E 000°08'0 0.0
2014-Sep-22 03:33N 49°28' E 000°08'0 0.0
2014-Sep-22 02:33N 49°28' E 000°08'0 0.0
2014-Sep-22 01:33N 49°28' E 000°08'0 0.0
2014-Sep-22 00:33N 49°28' E 000°08'2 1.8
2014-Sep-21 23:33N 49°28' E 000°06'1313.4
2014-Sep-21 22:33N 49°36' W 000°12'5614.0
2014-Sep-21 18:33N 50°30' E 000°12'1515.1
2014-Sep-21 17:33N 50°36' E 000°34'1716.5
2014-Sep-21 16:33N 50°46' E 000°54'1717.5
2014-Sep-21 15:33N 50°57' E 001°15'1717.2
2014-Sep-21 14:33N 51°09' E 001°35'1615.5
2014-Sep-21 13:33N 51°20' E 001°53'1110.9
2014-Sep-21 12:33N 51°23' E 002°10'1313.2
2014-Sep-21 11:33N 51°23' E 002°31'1313.2
2014-Sep-21 10:33N 51°22' E 002°52'1413.9
2014-Sep-21 09:33N 51°25' E 003°14'1413.8
2014-Sep-21 08:33N 51°26' E 003°36'1212.3
2014-Sep-21 07:34N 51°22' E 003°55'1010.0
2014-Sep-21 06:34N 51°24' E 004°11'5 4.9
2014-Sep-21 05:34N 51°21' E 004°17'1 1.2
2014-Sep-21 04:33N 51°20' E 004°18'1 0.7
2014-Sep-21 03:29N 51°19' E 004°19'0 0.0
2014-Sep-21 02:29N 51°19' E 004°19'0 0.0
2014-Sep-21 01:29N 51°19' E 004°19'0 0.0
2014-Sep-21 00:32N 51°19' E 004°19'0 0.0
2014-Sep-20 23:32N 51°19' E 004°19'0 0.0
2014-Sep-20 22:26N 51°19' E 004°19'0 0.0
2014-Sep-20 21:32N 51°19' E 004°19'0 0.0
2014-Sep-20 20:23N 51°19' E 004°19'0 0.0
2014-Sep-20 19:32N 51°19' E 004°19'0 0.0
2014-Sep-20 18:29N 51°19' E 004°19'0 0.0
2014-Sep-20 17:32N 51°19' E 004°19'0 0.0
2014-Sep-20 16:08N 51°19' E 004°19'0 0.0
2014-Sep-20 15:26N 51°19' E 004°19'0 0.0
2014-Sep-20 14:26N 51°19' E 004°19'0 0.0
2014-Sep-20 13:29N 51°19' E 004°19'  
Track history (hours):
 
Tides and Currents Weather Stations Pressure Air Temp Water Temp Dewpoint Dewpoint Depression Visibility Wind Speed Wind Dir Waves Ship Positions

Jork Reliance

Last reported at 2014-Sep-30 12:33 UTC. Time now 2014-Oct-01 20:29 UTC.
Position N 49°40' W 000°36'.

Length 141 m; draft 6.4 m.

Type: Ship (hazmat cat A). MMSI: 305033000.

Date/timePositionNaut miles runAvg speedWind from/ knotsBaromVisibWave heightAir tempDewpointWater temp
2014-Sep-30 12:33N 49°40' W 000°36'1313.1
2014-Sep-30 11:33N 49°35' W 000°17'1312.9
2014-Sep-30 10:33N 49°30' E 000°01'5 5.0
2014-Sep-30 09:32N 49°28' E 000°08'0 0.0
2014-Sep-30 08:32N 49°28' E 000°08'0 0.0
2014-Sep-30 07:32N 49°28' E 000°08'0 0.0
2014-Sep-30 06:32N 49°28' E 000°08'0 0.0
2014-Sep-30 05:32N 49°28' E 000°08'0 0.0
2014-Sep-30 04:32N 49°28' E 000°08'0 0.0
2014-Sep-30 03:32N 49°28' E 000°08'0 0.0
2014-Sep-30 02:32N 49°28' E 000°08'2 2.2
2014-Sep-30 01:33N 49°29' E 000°05'1211.9
2014-Sep-30 00:33N 49°33' W 000°12'8 7.9
2014-Sep-29 23:33N 49°41' W 000°12'8 7.8
2014-Sep-29 22:31N 49°49' W 000°10'42 8.1
2014-Sep-29 17:21N 50°30' E 000°08'910.9
2014-Sep-29 16:33N 50°33' E 000°20'1010.4
2014-Sep-29 15:34N 50°38' E 000°35'1010.4
2014-Sep-29 14:34N 50°44' E 000°48'24 9.7
2014-Sep-29 12:03N 50°57' E 001°20'611.7
2014-Sep-29 11:34N 51°01' E 001°26'1313.4
2014-Sep-29 10:33N 51°11' E 001°41'1312.7
2014-Sep-29 09:33N 51°21' E 001°55'9 9.4
2014-Sep-29 08:33N 51°22' E 002°10'1212.6
2014-Sep-29 07:34N 51°23' E 002°30'1515.2
2014-Sep-29 06:33N 51°23' E 002°54'1515.1
2014-Sep-29 05:33N 51°25' E 003°18'1414.1
2014-Sep-29 04:34N 51°26' E 003°40'1110.8
2014-Sep-29 03:34N 51°23' E 003°57'8 8.2
2014-Sep-29 02:33N 51°23' E 004°10'5 5.2
2014-Sep-29 01:34N 51°21' E 004°17'0 0.2
2014-Sep-29 00:34N 51°21' E 004°17'2 1.8
2014-Sep-28 23:32N 51°19' E 004°20'0 0.0
2014-Sep-28 22:32N 51°19' E 004°20'0 0.0
2014-Sep-28 21:32N 51°19' E 004°20'0 0.0
2014-Sep-28 20:32N 51°19' E 004°20'0 0.0
2014-Sep-28 19:32N 51°19' E 004°20'0 0.0
2014-Sep-28 18:29N 51°19' E 004°20'0 0.0
2014-Sep-28 17:32N 51°19' E 004°20'0 0.0
2014-Sep-28 16:29N 51°19' E 004°20'0 0.0
2014-Sep-28 15:32N 51°19' E 004°20'0 0.0
2014-Sep-28 14:32N 51°19' E 004°20'0 0.0
2014-Sep-28 13:32N 51°19' E 004°20'0 0.0
2014-Sep-28 12:32N 51°19' E 004°20'0 0.0
2014-Sep-28 11:32N 51°19' E 004°20'0 0.0
2014-Sep-28 10:33N 51°19' E 004°20'2 2.0
2014-Sep-28 09:34N 51°21' E 004°17'0 0.0
2014-Sep-28 08:34N 51°21' E 004°17'6 5.8
2014-Sep-28 07:34N 51°22' E 004°08'8 7.9
2014-Sep-28 06:33N 51°22' E 003°56'1211.7
2014-Sep-28 05:33N 51°25' E 003°37'9 9.2
2014-Sep-28 04:34N 51°24' E 003°23'1716.5
2014-Sep-28 03:33N 51°23' E 002°56'1111.5
2014-Sep-28 02:33N 51°22' E 002°38'8 8.1
2014-Sep-28 01:33N 51°21' E 002°25'1413.6
2014-Sep-28 00:33N 51°14' E 002°07'1616.2
2014-Sep-27 23:34N 51°04' E 001°46'1414.3
2014-Sep-27 22:33N 51°03' E 002°08'3 2.8
2014-Sep-27 21:33N 51°01' E 002°11'0 0.0
2014-Sep-27 20:33N 51°01' E 002°11'0 0.0
2014-Sep-27 19:27N 51°01' E 002°11'0 0.0
2014-Sep-27 18:33N 51°01' E 002°11'0 0.0
2014-Sep-27 17:33N 51°01' E 002°11'0 0.0
2014-Sep-27 16:33N 51°01' E 002°11'0 0.0
2014-Sep-27 15:33N 51°01' E 002°11'0 0.0
2014-Sep-27 14:33N 51°01' E 002°11'0 0.0
2014-Sep-27 13:33N 51°01' E 002°11'0 0.0
2014-Sep-27 12:33N 51°01' E 002°11'0 0.0
2014-Sep-27 11:33N 51°01' E 002°11'7 7.3
2014-Sep-27 10:33N 51°02' E 001°60'10 9.9
2014-Sep-27 09:33N 51°01' E 001°44'1312.8
2014-Sep-27 08:32N 50°53' E 001°28'1812.9
2014-Sep-27 07:08N 50°38' E 001°12'813.6
2014-Sep-27 06:32N 50°32' E 001°02'1313.6
2014-Sep-27 05:33N 50°27' E 000°43'1414.2
2014-Sep-27 04:33N 50°23' E 000°22'1414.1
2014-Sep-27 03:33N 50°19' E 000°01'1614.3
2014-Sep-27 02:27N 50°15' W 000°23'278 9.2
2014-Sep-25 20:14N 45°39' W 001°16'1416.4
2014-Sep-25 19:22N 45°31' W 000°59'  
2014-Sep-22 15:12N 49°41' W 000°38'1117.1
2014-Sep-22 14:34N 49°36' W 000°23'1616.2
2014-Sep-22 13:33N 49°30' E 000°01'5 5.2
2014-Sep-22 12:33N 49°28' E 000°08'0 0.0
2014-Sep-22 11:33N 49°28' E 000°08'0 0.0
2014-Sep-22 10:33N 49°28' E 000°08'0 0.0
2014-Sep-22 09:33N 49°28' E 000°08'0 0.0
2014-Sep-22 08:33N 49°28' E 000°08'0 0.0
2014-Sep-22 07:27N 49°28' E 000°08'0 0.0
2014-Sep-22 06:33N 49°28' E 000°08'0 0.0
2014-Sep-22 05:33N 49°28' E 000°08'0 0.0
2014-Sep-22 04:33N 49°28' E 000°08'0 0.0
2014-Sep-22 03:33N 49°28' E 000°08'0 0.0
2014-Sep-22 02:33N 49°28' E 000°08'0 0.0
2014-Sep-22 01:33N 49°28' E 000°08'0 0.0
2014-Sep-22 00:33N 49°28' E 000°08'2 1.8
2014-Sep-21 23:33N 49°28' E 000°06'1313.4
2014-Sep-21 22:33N 49°36' W 000°12'5614.0
2014-Sep-21 18:33N 50°30' E 000°12'1515.1
2014-Sep-21 17:33N 50°36' E 000°34'1716.5
2014-Sep-21 16:33N 50°46' E 000°54'1717.5
2014-Sep-21 15:33N 50°57' E 001°15'1717.2
2014-Sep-21 14:33N 51°09' E 001°35'1615.5
2014-Sep-21 13:33N 51°20' E 001°53'1110.9
2014-Sep-21 12:33N 51°23' E 002°10'1313.2
2014-Sep-21 11:33N 51°23' E 002°31'1313.2
2014-Sep-21 10:33N 51°22' E 002°52'1413.9
2014-Sep-21 09:33N 51°25' E 003°14'1413.8
2014-Sep-21 08:33N 51°26' E 003°36'1212.3
2014-Sep-21 07:34N 51°22' E 003°55'1010.0
2014-Sep-21 06:34N 51°24' E 004°11'5 4.9
2014-Sep-21 05:34N 51°21' E 004°17'1 1.2
2014-Sep-21 04:33N 51°20' E 004°18'1 0.7
2014-Sep-21 03:29N 51°19' E 004°19'0 0.0
2014-Sep-21 02:29N 51°19' E 004°19'0 0.0
2014-Sep-21 01:29N 51°19' E 004°19'0 0.0
2014-Sep-21 00:32N 51°19' E 004°19'0 0.0
2014-Sep-20 23:32N 51°19' E 004°19'0 0.0
2014-Sep-20 22:26N 51°19' E 004°19'0 0.0
2014-Sep-20 21:32N 51°19' E 004°19'0 0.0
2014-Sep-20 20:23N 51°19' E 004°19'0 0.0
2014-Sep-20 19:32N 51°19' E 004°19'0 0.0
2014-Sep-20 18:29N 51°19' E 004°19'0 0.0
2014-Sep-20 17:32N 51°19' E 004°19'0 0.0
2014-Sep-20 16:08N 51°19' E 004°19'0 0.0
2014-Sep-20 15:26N 51°19' E 004°19'0 0.0
2014-Sep-20 14:26N 51°19' E 004°19'0 0.0
2014-Sep-20 13:29N 51°19' E 004°19'  

Dump ship's entire track history